createdAt,value
2018-10-01T00:01:35.836Z,100435.22
2018-10-01T00:04:05.653Z,100436.94
2018-10-01T00:06:35.412Z,100438.69
2018-10-01T00:09:06.544Z,100433.91
2018-10-01T00:11:36.043Z,100429.09
2018-10-01T00:14:05.923Z,100431.25
2018-10-01T00:16:35.726Z,100429.53
2018-10-01T00:19:09.612Z,100430.40
2018-10-01T00:21:44.422Z,100427.78
2018-10-01T00:24:14.180Z,100424.28
2018-10-01T00:26:43.906Z,100418.59
2018-10-01T00:29:13.672Z,100418.16
2018-10-01T00:31:43.454Z,100417.28
2018-10-01T00:34:13.193Z,100412.48
2018-10-01T00:36:42.978Z,100404.62
2018-10-01T00:39:12.409Z,100410.73
2018-10-01T00:41:42.466Z,100397.61
2018-10-01T00:44:12.273Z,100401.11
2018-10-01T00:46:41.757Z,100399.40
2018-10-01T00:49:11.211Z,100392.38
2018-10-01T00:51:40.597Z,100395.44
2018-10-01T00:54:10.419Z,100392.84
2018-10-01T00:56:39.886Z,100388.89
2018-10-01T00:59:09.894Z,100388.45
2018-10-01T01:01:39.654Z,100393.69
2018-10-01T01:04:09.060Z,100395.90
2018-10-01T01:06:38.953Z,100390.66
2018-10-01T01:09:09.729Z,100390.19
2018-10-01T01:11:39.549Z,100389.34
2018-10-01T01:14:08.977Z,100383.64
2018-10-01T01:16:38.404Z,100390.22
2018-10-01T01:19:08.152Z,100390.66
2018-10-01T01:21:37.619Z,100392.82
2018-10-01T01:24:07.017Z,100385.40
2018-10-01T01:26:36.529Z,100386.28
2018-10-01T01:29:05.993Z,100381.48
2018-10-01T01:31:35.985Z,100381.47
2018-10-01T01:34:05.761Z,100380.59
2018-10-01T01:36:35.225Z,100378.86
2018-10-01T01:39:07.841Z,100371.84
2018-10-01T01:41:37.695Z,100374.05
2018-10-01T01:44:07.709Z,100370.53
2018-10-01T01:46:37.797Z,100369.22
2018-10-01T01:49:07.460Z,100369.67
2018-10-01T01:51:37.417Z,100366.61
2018-10-01T01:54:07.263Z,100364.86
2018-10-01T01:56:37.137Z,100370.11
2018-10-01T01:59:07.011Z,100374.91
2018-10-01T02:01:36.905Z,100372.70
2018-10-01T02:04:06.737Z,100365.73
2018-10-01T02:06:36.245Z,100354.81
2018-10-01T02:09:08.940Z,100353.05
2018-10-01T02:11:38.473Z,100351.30
2018-10-01T02:14:08.482Z,100352.62
2018-10-01T02:16:38.607Z,100358.73
2018-10-01T02:19:08.512Z,100358.73
2018-10-01T02:21:38.419Z,100356.94
2018-10-01T02:24:08.247Z,100349.53
2018-10-01T02:26:37.804Z,100355.60
2018-10-01T02:29:07.737Z,100356.05
2018-10-01T02:31:37.671Z,100343.38
2018-10-01T02:34:07.777Z,100346.40
2018-10-01T02:36:37.725Z,100345.55
2018-10-01T02:39:12.653Z,100343.81
2018-10-01T02:41:42.264Z,100350.83
2018-10-01T02:44:11.768Z,100355.61
2018-10-01T02:46:41.385Z,100357.77
2018-10-01T02:49:11.027Z,100349.91
2018-10-01T02:51:46.265Z,100348.56
2018-10-01T02:54:21.058Z,100347.64
2018-10-01T02:56:50.854Z,100350.27
2018-10-01T02:59:20.332Z,100346.77
2018-10-01T03:01:49.880Z,100345.05
2018-10-01T03:04:19.769Z,100342.84
2018-10-01T03:06:49.687Z,100340.20
2018-10-01T03:09:19.103Z,100331.45
2018-10-01T03:11:48.895Z,100311.44
2018-10-01T03:14:18.372Z,100316.21
2018-10-01T03:16:48.137Z,100318.85
2018-10-01T03:19:17.592Z,100319.30
2018-10-01T03:21:47.792Z,100318.87
2018-10-01T03:24:17.723Z,100320.19
2018-10-01T03:26:47.201Z,100320.61
2018-10-01T03:29:16.971Z,100320.17
2018-10-01T03:31:46.796Z,100315.39
2018-10-01T03:34:16.212Z,100307.53
2018-10-01T03:36:46.024Z,100315.81
2018-10-01T03:39:15.773Z,100308.41
2018-10-01T03:41:45.214Z,100311.92
2018-10-01T03:44:15.033Z,100319.77
2018-10-01T03:46:44.484Z,100309.75
2018-10-01T03:49:15.236Z,100306.68
2018-10-01T03:51:44.712Z,100300.12
2018-10-01T03:54:14.500Z,100299.25
2018-10-01T03:56:44.293Z,100296.20
2018-10-01T03:59:13.781Z,100289.24
2018-10-01T04:01:43.582Z,100287.05
2018-10-01T04:04:13.305Z,100286.59
2018-10-01T04:06:43.160Z,100280.02
2018-10-01T04:09:12.732Z,100276.12
2018-10-01T04:11:42.478Z,100278.27
2018-10-01T04:14:12.465Z,100277.83
2018-10-01T04:16:41.871Z,100276.94
2018-10-01T04:19:11.880Z,100279.11
2018-10-01T04:21:41.895Z,100282.62
2018-10-01T04:24:11.491Z,100277.41
2018-10-01T04:26:41.312Z,100283.52
2018-10-01T04:29:10.959Z,100278.73
2018-10-01T04:31:40.476Z,100278.75
2018-10-01T04:34:10.164Z,100279.17
2018-10-01T04:36:40.224Z,100281.37
2018-10-01T04:39:12.948Z,100278.31
2018-10-01T04:41:42.859Z,100282.66
2018-10-01T04:44:12.655Z,100287.00
2018-10-01T04:46:42.505Z,100290.47
2018-10-01T04:49:12.578Z,100288.74
2018-10-01T04:51:43.190Z,100282.20
2018-10-01T04:54:12.704Z,100292.20
2018-10-01T04:56:42.257Z,100289.59
2018-10-01T04:59:11.653Z,100294.41
2018-10-01T05:01:41.051Z,100283.52
2018-10-01T05:04:10.511Z,100291.78
2018-10-01T05:06:39.904Z,100293.53
2018-10-01T05:09:10.716Z,100299.65
2018-10-01T05:11:40.421Z,100302.28
2018-10-01T05:14:10.244Z,100309.69
2018-10-01T05:16:39.659Z,100321.06
2018-10-01T05:19:09.079Z,100317.15
2018-10-01T05:21:38.475Z,100322.85
2018-10-01T05:24:07.903Z,100329.47
2018-10-01T05:26:37.339Z,100334.29
2018-10-01T05:29:07.507Z,100328.61
2018-10-01T05:31:37.384Z,100326.88
2018-10-01T05:34:07.249Z,100334.29
2018-10-01T05:36:36.791Z,100339.53
2018-10-01T05:39:10.778Z,100339.09
2018-10-01T05:41:40.502Z,100341.70
2018-10-01T05:44:10.330Z,100344.31
2018-10-01T05:46:41.174Z,100347.38
2018-10-01T05:49:10.726Z,100345.19
2018-10-01T05:51:40.427Z,100349.98
2018-10-01T05:54:10.324Z,100344.31
2018-10-01T05:56:39.842Z,100341.71
2018-10-01T05:59:10.075Z,100341.27
2018-10-01T06:01:39.739Z,100347.38
2018-10-01T06:04:09.125Z,100350.03
2018-10-01T06:06:38.557Z,100345.66
2018-10-01T06:09:10.925Z,100352.22
2018-10-01T06:11:40.425Z,100353.08
2018-10-01T06:14:09.762Z,100353.95
2018-10-01T06:16:39.563Z,100359.20
2018-10-01T06:19:09.400Z,100347.37
2018-10-01T06:21:38.889Z,100358.72
2018-10-01T06:24:08.299Z,100352.58
2018-10-01T06:26:38.054Z,100350.40
2018-10-01T06:29:07.863Z,100353.87
2018-10-01T06:31:37.232Z,100359.53
2018-10-01T06:34:06.997Z,100356.41
2018-10-01T06:36:36.716Z,100358.53
2018-10-01T06:39:09.169Z,100361.98
2018-10-01T06:41:39.226Z,100360.23
2018-10-01T06:44:09.267Z,100363.69
2018-10-01T06:46:39.083Z,100370.25
2018-10-01T06:49:09.164Z,100368.45
2018-10-01T06:51:38.923Z,100365.83
2018-10-01T06:54:08.662Z,100360.53
2018-10-01T06:56:38.075Z,100368.40
2018-10-01T06:59:07.578Z,100370.48
2018-10-01T07:01:37.332Z,100369.11
2018-10-01T07:04:07.160Z,100370.75
2018-10-01T07:06:36.926Z,100376.31
2018-10-01T07:09:10.010Z,100372.63
2018-10-01T07:11:40.458Z,100377.56
2018-10-01T07:14:09.728Z,100377.70
2018-10-01T07:16:39.589Z,100370.03
2018-10-01T07:19:09.326Z,100360.70
2018-10-01T07:21:39.170Z,100366.66
2018-10-01T07:24:08.918Z,100365.13
2018-10-01T07:26:38.770Z,100362.87
2018-10-01T07:29:08.552Z,100364.89
2018-10-01T07:31:38.340Z,100375.31
2018-10-01T07:34:08.154Z,100368.12
2018-10-01T07:36:37.928Z,100369.95
2018-10-01T07:39:09.062Z,100367.84
2018-10-01T07:41:38.882Z,100366.66
2018-10-01T07:44:09.034Z,100374.56
2018-10-01T07:46:38.920Z,100371.66
2018-10-01T07:49:08.684Z,100367.58
2018-10-01T07:51:38.414Z,100371.18
2018-10-01T07:54:08.911Z,100374.88
2018-10-01T07:56:38.722Z,100371.67
2018-10-01T07:59:08.734Z,100376.12
2018-10-01T08:01:38.445Z,100383.36
2018-10-01T08:04:08.238Z,100377.89
2018-10-01T08:06:37.943Z,100386.65
2018-10-01T08:09:10.209Z,100394.20
2018-10-01T08:11:40.045Z,100411.53
2018-10-01T08:14:09.917Z,100402.13
2018-10-01T08:16:39.658Z,100398.69
2018-10-01T08:19:09.711Z,100397.23
2018-10-01T08:21:39.523Z,100395.86
2018-10-01T08:24:09.310Z,100398.21
2018-10-01T08:26:39.204Z,100402.48
2018-10-01T08:29:09.024Z,100405.71
2018-10-01T08:31:38.710Z,100405.98
2018-10-01T08:34:08.478Z,100411.84
2018-10-01T08:36:38.219Z,100413.78
2018-10-01T08:39:13.334Z,100420.95
2018-10-01T08:41:43.285Z,100409.51
2018-10-01T08:44:13.820Z,100412.58
2018-10-01T08:46:43.595Z,100410.25
2018-10-01T08:50:21.265Z,100412.36
2018-10-01T08:53:03.563Z,100408.20
2018-10-01T08:55:33.396Z,100409.59
2018-10-01T08:58:03.119Z,100409.39
2018-10-01T09:00:32.972Z,100401.42
2018-10-01T09:03:02.945Z,100403.13
2018-10-01T09:05:32.809Z,100400.83
2018-10-01T09:08:02.652Z,100406.15
2018-10-01T09:10:32.482Z,100400.80
2018-10-01T09:13:02.282Z,100402.47
2018-10-01T09:15:32.067Z,100395.93
2018-10-01T09:18:01.858Z,100389.92
2018-10-01T09:20:31.596Z,100392.11
2018-10-01T09:23:01.395Z,100398.95
2018-10-01T09:25:31.206Z,100399.97
2018-10-01T09:28:00.999Z,100396.98
2018-10-01T09:30:30.722Z,100400.00
2018-10-01T09:33:00.481Z,100389.74
2018-10-01T09:35:30.315Z,100386.86
2018-10-01T09:38:00.187Z,100390.09
2018-10-01T09:40:30.072Z,100392.63
2018-10-01T09:42:59.856Z,100388.72
2018-10-01T09:45:29.715Z,100384.45
2018-10-01T09:47:59.596Z,100382.11
2018-10-01T09:50:29.379Z,100389.63
2018-10-01T09:52:59.123Z,100384.91
2018-10-01T09:55:28.871Z,100394.30
2018-10-01T09:57:58.634Z,100391.86
2018-10-01T10:00:33.414Z,100385.40
2018-10-01T10:03:03.173Z,100381.84
2018-10-01T10:05:32.913Z,100383.99
2018-10-01T10:08:02.722Z,100380.59
2018-10-01T10:10:32.542Z,100381.70
2018-10-01T10:13:02.300Z,100384.83
2018-10-01T10:15:32.089Z,100386.08
2018-10-01T10:18:01.900Z,100389.14
2018-10-01T10:20:31.711Z,100386.00
2018-10-01T10:23:01.536Z,100393.38
2018-10-01T10:25:31.325Z,100393.29
2018-10-01T10:28:01.102Z,100395.89
2018-10-01T10:30:30.917Z,100393.89
2018-10-01T10:33:00.801Z,100399.28
2018-10-01T10:35:30.632Z,100397.95
2018-10-01T10:38:00.442Z,100394.13
2018-10-01T10:40:30.391Z,100396.87
2018-10-01T10:43:00.201Z,100400.72
2018-10-01T10:45:30.044Z,100404.47
2018-10-01T10:47:59.829Z,100404.52
2018-10-01T10:50:29.579Z,100403.98
2018-10-01T10:52:59.345Z,100405.69
2018-10-01T10:55:29.132Z,100408.89
2018-10-01T10:57:58.925Z,100400.78
2018-10-01T11:00:28.707Z,100402.66
2018-10-01T11:02:58.409Z,100399.58
2018-10-01T11:05:28.117Z,100398.55
2018-10-01T11:07:57.975Z,100400.98
2018-10-01T11:10:27.770Z,100400.52
2018-10-01T11:12:57.471Z,100406.36
2018-10-01T11:15:27.322Z,100409.86
2018-10-01T11:17:57.121Z,100409.79
2018-10-01T11:20:27.076Z,100405.63
2018-10-01T11:22:56.715Z,100408.94
2018-10-01T11:25:26.561Z,100404.20
2018-10-01T11:27:56.439Z,100402.72
2018-10-01T11:30:26.229Z,100403.99
2018-10-01T11:32:56.099Z,100400.61
2018-10-01T11:35:26.100Z,100398.80
2018-10-01T11:37:55.671Z,100398.00
2018-10-01T11:40:25.446Z,100399.27
2018-10-01T11:42:55.209Z,100403.53
2018-10-01T11:45:25.094Z,100401.93
2018-10-01T11:47:54.873Z,100398.31
2018-10-01T11:50:24.690Z,100396.10
2018-10-01T11:52:54.551Z,100400.30
2018-10-01T11:55:24.352Z,100392.91
2018-10-01T11:57:54.125Z,100395.44
2018-10-01T12:00:23.969Z,100391.50
2018-10-01T12:02:53.757Z,100382.93
2018-10-01T12:05:23.602Z,100398.11
2018-10-01T12:07:54.347Z,100401.80
2018-10-01T12:10:24.149Z,100400.39
2018-10-01T12:12:53.950Z,100403.66
2018-10-01T12:15:23.818Z,100407.51
2018-10-01T12:17:53.572Z,100407.30
2018-10-01T12:20:23.314Z,100406.41
2018-10-01T12:22:53.126Z,100407.38
2018-10-01T12:25:22.890Z,100403.90
2018-10-01T12:27:52.639Z,100404.94
2018-10-01T12:30:22.386Z,100404.52
2018-10-01T12:32:52.138Z,100410.89
2018-10-01T12:35:21.980Z,100415.61
2018-10-01T12:37:51.716Z,100410.11
2018-10-01T12:40:21.475Z,100412.20
2018-10-01T12:42:51.447Z,100413.52
2018-10-01T12:45:21.259Z,100407.09
2018-10-01T12:47:51.025Z,100405.97
2018-10-01T12:50:20.761Z,100409.67
2018-10-01T12:52:50.560Z,100407.94
2018-10-01T12:55:20.440Z,100403.63
2018-10-01T12:57:50.242Z,100400.73
2018-10-01T13:00:19.992Z,100403.60
2018-10-01T13:02:49.890Z,100404.30
2018-10-01T13:05:19.656Z,100411.61
2018-10-01T13:07:49.500Z,100412.64
2018-10-01T13:10:19.320Z,100411.65
2018-10-01T13:12:49.118Z,100414.55
2018-10-01T13:15:18.884Z,100407.58
2018-10-01T13:17:48.639Z,100409.77
2018-10-01T13:20:18.443Z,100408.65
2018-10-01T13:22:48.320Z,100414.19
2018-10-01T13:25:18.136Z,100408.58
2018-10-01T13:27:47.850Z,100410.44
2018-10-01T13:30:18.092Z,100409.42
2018-10-01T13:32:47.863Z,100408.70
2018-10-01T13:35:17.675Z,100406.50
2018-10-01T13:37:47.505Z,100402.67
2018-10-01T13:40:17.316Z,100410.84
2018-10-01T13:42:47.414Z,100408.41
2018-10-01T13:45:17.288Z,100413.82
2018-10-01T13:47:47.168Z,100414.23
2018-10-01T13:50:16.963Z,100419.02
2018-10-01T13:52:46.789Z,100415.67
2018-10-01T13:55:16.683Z,100423.27
2018-10-01T13:57:46.452Z,100415.72
2018-10-01T14:00:16.321Z,100419.23
2018-10-01T14:02:46.090Z,100425.72
2018-10-01T14:05:15.845Z,100424.43
2018-10-01T14:07:45.683Z,100434.92
2018-10-01T14:10:15.407Z,100439.41
2018-10-01T14:12:45.186Z,100437.21
2018-10-01T14:15:15.028Z,100439.02
2018-10-01T14:17:45.007Z,100439.51
2018-10-01T14:20:14.860Z,100449.44
2018-10-01T14:22:44.690Z,100452.55
2018-10-01T14:25:14.516Z,100464.91
2018-10-01T14:27:44.810Z,100450.05
2018-10-01T14:30:14.673Z,100455.92
2018-10-01T14:32:44.475Z,100459.87
2018-10-01T14:35:14.296Z,100460.30
2018-10-01T14:37:44.599Z,100469.17
2018-10-01T14:40:14.356Z,100469.31
2018-10-01T14:42:44.195Z,100468.06
2018-10-01T14:45:14.156Z,100470.21
2018-10-01T14:47:43.991Z,100473.79
2018-10-01T14:50:13.963Z,100479.45
2018-10-01T14:52:43.727Z,100484.00
2018-10-01T14:55:13.575Z,100480.52
2018-10-01T14:57:43.367Z,100487.31
2018-10-01T15:00:13.201Z,100486.75
2018-10-01T15:02:42.998Z,100488.00
2018-10-01T15:05:12.810Z,100486.17
2018-10-01T15:07:42.622Z,100487.97
2018-10-01T15:10:12.428Z,100495.59
2018-10-01T15:12:42.228Z,100489.88
2018-10-01T15:15:13.113Z,100496.02
2018-10-01T15:17:42.868Z,100492.59
2018-10-01T15:20:12.702Z,100487.25
2018-10-01T15:22:42.539Z,100488.24
2018-10-01T15:25:12.356Z,100493.84
2018-10-01T15:27:42.123Z,100495.48
2018-10-01T15:30:11.953Z,100493.13
2018-10-01T15:32:41.703Z,100492.33
2018-10-01T15:35:11.589Z,100490.81
2018-10-01T15:37:41.365Z,100494.23
2018-10-01T15:40:11.189Z,100496.92
2018-10-01T15:42:41.024Z,100505.06
2018-10-01T15:45:10.974Z,100505.02
2018-10-01T15:47:40.856Z,100508.39
2018-10-01T15:50:10.695Z,100510.20
2018-10-01T15:52:40.580Z,100510.80
2018-10-01T15:55:10.496Z,100512.20
2018-10-01T15:57:40.329Z,100510.95
2018-10-01T16:00:10.201Z,100514.02
2018-10-01T16:02:40.069Z,100521.06
2018-10-01T16:05:09.880Z,100528.08
2018-10-01T16:07:39.620Z,100534.73
2018-10-01T16:10:09.463Z,100535.19
2018-10-01T16:12:39.577Z,100537.98
2018-10-01T16:15:09.458Z,100543.33
2018-10-01T16:17:39.414Z,100538.79
2018-10-01T16:20:09.453Z,100549.92
2018-10-01T16:22:39.251Z,100546.74
2018-10-01T16:25:08.922Z,100553.58
2018-10-01T16:27:39.275Z,100551.03
2018-10-01T16:30:09.534Z,100559.89
2018-10-01T16:32:39.584Z,100563.03
2018-10-01T16:35:09.834Z,100567.69
2018-10-01T16:37:39.756Z,100566.40
2018-10-01T16:40:11.677Z,100567.53
2018-10-01T16:42:42.166Z,100574.93
2018-10-01T16:45:11.900Z,100570.24
2018-10-01T16:47:41.721Z,100574.82
2018-10-01T16:50:11.704Z,100582.32
2018-10-01T16:52:41.546Z,100593.39
2018-10-01T16:55:12.445Z,100590.11
2018-10-01T16:57:42.377Z,100597.27
2018-10-01T17:00:12.794Z,100606.48
2018-10-01T17:02:42.690Z,100618.62
2018-10-01T17:05:13.400Z,100617.34
2018-10-01T17:07:43.269Z,100618.49
2018-10-01T17:10:16.953Z,100622.08
2018-10-01T17:12:46.937Z,100627.95
2018-10-01T17:15:19.893Z,100622.59
2018-10-01T17:17:53.319Z,100627.98
2018-10-01T17:20:23.145Z,100632.77
2018-10-01T17:25:34.645Z,100637.58
2018-10-01T17:28:04.650Z,100645.11
2018-10-01T17:30:34.368Z,100647.08
2018-10-01T17:33:04.259Z,100644.95
2018-10-01T17:35:33.694Z,100635.17
2018-10-01T17:38:03.225Z,100638.33
2018-10-01T17:40:33.937Z,100638.02
2018-10-01T17:43:04.439Z,100650.21
2018-10-01T17:45:34.029Z,100644.66
2018-10-01T17:48:04.179Z,100644.77
2018-10-01T17:50:34.214Z,100645.68
2018-10-01T17:53:04.147Z,100651.08
2018-10-01T17:55:34.729Z,100649.80
2018-10-01T17:58:04.545Z,100654.33
2018-10-01T18:00:33.989Z,100654.37
2018-10-01T18:03:04.173Z,100655.24
2018-10-01T18:05:35.175Z,100658.34
2018-10-01T18:08:04.660Z,100665.40
2018-10-01T18:10:34.622Z,100665.44
2018-10-01T18:13:04.741Z,100669.96
2018-10-01T18:15:35.501Z,100669.58
2018-10-01T18:18:05.571Z,100673.16
2018-10-01T18:20:35.541Z,100681.48
2018-10-01T18:23:06.483Z,100680.11
2018-10-01T18:25:36.856Z,100684.77
2018-10-01T18:28:12.249Z,100694.01
2018-10-01T18:30:42.233Z,100699.62
2018-10-01T18:33:12.293Z,100706.84
2018-10-01T18:35:42.668Z,100717.91
2018-10-01T18:38:12.696Z,100724.70
2018-10-01T18:40:42.320Z,100730.16
2018-10-01T18:43:13.981Z,100722.09
2018-10-01T18:45:43.911Z,100741.12
2018-10-01T18:48:13.661Z,100732.80
2018-10-01T18:50:43.313Z,100729.64
2018-10-01T18:53:13.096Z,100730.55
2018-10-01T18:55:42.872Z,100733.40
2018-10-01T18:58:19.523Z,100723.23
2018-10-01T19:00:53.473Z,100718.45
2018-10-01T19:03:23.450Z,100713.39
2018-10-01T19:05:53.154Z,100724.93
2018-10-01T19:08:23.041Z,100714.28
2018-10-01T19:10:52.772Z,100721.34
2018-10-01T19:13:24.816Z,100718.77
2018-10-01T19:15:55.090Z,100721.06
2018-10-01T19:18:30.263Z,100722.39
2018-10-01T19:21:00.256Z,100727.22
2018-10-01T19:23:31.315Z,100725.05
2018-10-01T19:26:01.779Z,100722.44
2018-10-01T19:28:31.721Z,100727.25
2018-10-01T19:31:07.344Z,100734.72
2018-10-01T19:33:37.415Z,100739.09
2018-10-01T19:36:07.770Z,100740.27
2018-10-01T19:38:37.829Z,100741.67
2018-10-01T19:41:08.199Z,100743.86
2018-10-01T19:43:38.283Z,100755.27
2018-10-01T19:46:08.739Z,100756.98
2018-10-01T19:48:40.130Z,100758.36
2018-10-01T19:51:10.590Z,100764.02
2018-10-01T19:53:40.128Z,100766.63
2018-10-01T19:56:10.104Z,100776.23
2018-10-01T19:58:39.958Z,100779.75
2018-10-01T20:01:09.779Z,100778.00
2018-10-01T20:03:39.622Z,100777.64
2018-10-01T20:06:09.416Z,100782.03
2018-10-01T20:08:40.323Z,100790.48
2018-10-01T20:11:10.313Z,100789.17
2018-10-01T20:13:40.188Z,100788.55
2018-10-01T20:16:09.990Z,100785.55
2018-10-01T20:18:39.758Z,100784.56
2018-10-01T20:21:09.671Z,100787.31
2018-10-01T20:23:39.490Z,100788.61
2018-10-01T20:26:09.403Z,100787.83
2018-10-01T20:28:39.361Z,100793.48
2018-10-01T20:31:09.094Z,100792.56
2018-10-01T20:33:39.166Z,100794.77
2018-10-01T20:36:09.112Z,100796.52
2018-10-01T20:38:39.016Z,100793.36
2018-10-01T20:41:09.093Z,100796.03
2018-10-01T20:43:38.801Z,100799.98
2018-10-01T20:46:09.120Z,100802.19
2018-10-01T20:48:38.887Z,100799.55
2018-10-01T20:51:08.476Z,100799.16
2018-10-01T20:53:38.290Z,100797.44
2018-10-01T20:56:07.933Z,100804.36
2018-10-01T20:58:38.211Z,100803.05
2018-10-01T21:01:08.131Z,100802.26
2018-10-01T21:03:37.703Z,100804.36
2018-10-01T21:06:07.710Z,100803.94
2018-10-01T21:08:37.631Z,100805.27
2018-10-01T21:11:07.697Z,100813.72
2018-10-01T21:13:37.590Z,100813.25
2018-10-01T21:16:07.729Z,100811.69
2018-10-01T21:18:37.544Z,100815.65
2018-10-01T21:21:07.079Z,100821.08
2018-10-01T21:23:36.805Z,100818.05
2018-10-01T21:26:06.885Z,100827.30
2018-10-01T21:28:36.731Z,100824.74
2018-10-01T21:31:06.199Z,100827.00
2018-10-01T21:33:35.727Z,100829.69
2018-10-01T21:36:05.503Z,100823.98
2018-10-01T21:38:35.066Z,100828.41
2018-10-01T21:41:04.925Z,100830.58
2018-10-01T21:43:34.797Z,100823.13
2018-10-01T21:46:04.375Z,100829.72
2018-10-01T21:48:33.751Z,100833.73
2018-10-01T21:51:03.559Z,100839.88
2018-10-01T21:53:33.395Z,100833.28
2018-10-01T21:56:02.926Z,100841.64
2018-10-01T21:58:32.754Z,100837.63
2018-10-01T22:01:07.931Z,100842.02
2018-10-01T22:03:37.713Z,100842.00
2018-10-01T22:06:07.525Z,100842.88
2018-10-01T22:08:37.383Z,100848.03
2018-10-01T22:11:07.264Z,100841.42
2018-10-01T22:13:36.782Z,100844.88
2018-10-01T22:16:06.567Z,100849.20
2018-10-01T22:18:36.333Z,100849.58
2018-10-01T22:21:06.175Z,100849.50
2018-10-01T22:23:35.950Z,100845.98
2018-10-01T22:26:05.711Z,100851.31
2018-10-01T22:28:35.107Z,100856.51
2018-10-01T22:31:04.914Z,100856.52
2018-10-01T22:33:34.719Z,100847.79
2018-10-01T22:36:04.509Z,100851.61
2018-10-01T22:38:34.387Z,100852.55
2018-10-01T22:41:04.219Z,100849.05
2018-10-01T22:43:34.051Z,100849.40
2018-10-01T22:46:03.492Z,100843.23
2018-10-01T22:48:33.333Z,100846.77
2018-10-01T22:51:02.874Z,100849.86
2018-10-01T22:53:32.650Z,100857.75
2018-10-01T22:56:02.470Z,100847.72
2018-10-01T22:58:32.310Z,100858.73
2018-10-01T23:01:02.089Z,100864.06
2018-10-01T23:03:31.842Z,100864.20
2018-10-01T23:06:01.526Z,100868.17
2018-10-01T23:08:31.389Z,100873.19
2018-10-01T23:11:01.231Z,100874.92
2018-10-01T23:13:31.035Z,100867.93
2018-10-01T23:16:00.820Z,100872.00
2018-10-01T23:18:30.308Z,100872.88
2018-10-01T23:21:00.240Z,100884.33
2018-10-01T23:23:30.382Z,100887.48
2018-10-01T23:25:59.893Z,100891.00
2018-10-01T23:28:29.714Z,100890.16
2018-10-01T23:30:59.674Z,100894.55
2018-10-01T23:33:29.478Z,100898.94
2018-10-01T23:35:58.872Z,100895.86
2018-10-01T23:38:28.793Z,100896.77
2018-10-01T23:40:58.530Z,100893.73
2018-10-01T23:43:28.090Z,100894.20
2018-10-01T23:45:57.919Z,100897.70
2018-10-01T23:48:27.756Z,100904.23
2018-10-01T23:50:57.218Z,100902.95
2018-10-01T23:53:27.076Z,100910.84
2018-10-01T23:55:56.887Z,100916.98
2018-10-01T23:58:26.686Z,100920.00
